createdAt,value
2023-04-29T00:01:24.101Z,17.64
2023-04-29T00:03:53.406Z,18.25
2023-04-29T00:06:22.612Z,17.29
2023-04-29T00:08:52.521Z,17.57
2023-04-29T00:11:21.014Z,17.26
2023-04-29T00:13:49.453Z,16.31
2023-04-29T00:16:18.544Z,16.50
2023-04-29T00:18:47.288Z,16.39
2023-04-29T00:21:15.861Z,16.59
2023-04-29T00:23:44.449Z,16.29
2023-04-29T00:26:12.899Z,17.55
2023-04-29T00:28:41.398Z,16.53
2023-04-29T00:31:09.912Z,17.55
2023-04-29T00:33:38.962Z,17.46
2023-04-29T00:36:08.547Z,17.56
2023-04-29T00:38:37.085Z,16.81
2023-04-29T00:41:06.138Z,16.86
2023-04-29T00:43:34.691Z,16.20
2023-04-29T00:46:03.926Z,16.55
2023-04-29T00:48:32.998Z,17.26
2023-04-29T00:51:02.617Z,16.36
2023-04-29T00:53:31.838Z,16.85
2023-04-29T00:56:01.828Z,16.80
2023-04-29T00:58:33.509Z,17.05
2023-04-29T01:01:03.744Z,16.00
2023-04-29T01:03:32.546Z,16.00
2023-04-29T01:06:26.199Z,16.97
2023-04-29T01:09:22.912Z,15.92
2023-04-29T01:12:11.494Z,15.18
2023-04-29T01:14:43.668Z,16.28
2023-04-29T01:17:15.752Z,17.26
2023-04-29T01:19:50.417Z,16.27
2023-04-29T01:22:20.163Z,15.92
2023-04-29T01:24:49.778Z,15.45
2023-04-29T01:27:31.811Z,15.76
2023-04-29T01:32:43.678Z,16.43
2023-04-29T01:35:30.081Z,16.48
2023-04-29T01:38:22.846Z,16.63
2023-04-29T01:41:09.285Z,15.70
2023-04-29T01:43:39.571Z,16.89
2023-04-29T01:46:12.179Z,17.44
2023-04-29T01:48:40.715Z,16.11
2023-04-29T01:51:09.427Z,17.16
2023-04-29T01:53:40.346Z,17.27
2023-04-29T01:56:08.886Z,17.35
2023-04-29T01:58:37.214Z,17.39
2023-04-29T02:01:06.979Z,16.01
2023-04-29T02:03:36.480Z,16.64
2023-04-29T02:06:06.882Z,17.57
2023-04-29T02:08:36.280Z,17.94
2023-04-29T02:11:04.848Z,17.70
2023-04-29T02:13:33.234Z,17.68
2023-04-29T02:16:12.400Z,17.48
2023-04-29T02:18:41.074Z,18.73
2023-04-29T02:21:09.595Z,18.14
2023-04-29T02:23:38.545Z,18.08
2023-04-29T02:26:07.364Z,18.02
2023-04-29T02:28:36.039Z,18.40
2023-04-29T02:31:04.495Z,18.22
2023-04-29T02:33:33.634Z,18.81
2023-04-29T02:36:02.149Z,16.71
2023-04-29T02:38:30.583Z,17.68
2023-04-29T02:40:59.018Z,16.88
2023-04-29T02:43:30.943Z,17.26
2023-04-29T02:46:00.373Z,17.82
2023-04-29T02:48:28.916Z,18.89
2023-04-29T02:50:57.663Z,18.33
2023-04-29T02:53:26.084Z,17.44
2023-04-29T02:55:54.522Z,18.41
2023-04-29T02:58:22.983Z,18.14
2023-04-29T03:00:51.391Z,17.62
2023-04-29T03:03:19.914Z,18.37
2023-04-29T03:05:48.436Z,17.07
2023-04-29T03:08:16.983Z,18.38
2023-04-29T03:10:46.539Z,17.99
2023-04-29T03:13:15.013Z,16.53
2023-04-29T03:15:44.225Z,16.42
2023-04-29T03:18:12.864Z,17.81
2023-04-29T03:20:41.484Z,17.28
2023-04-29T03:23:09.865Z,17.18
2023-04-29T03:25:38.376Z,16.10
2023-04-29T03:28:06.922Z,17.68
2023-04-29T03:30:35.468Z,16.63
2023-04-29T03:33:04.128Z,18.38
2023-04-29T03:35:32.642Z,17.67
2023-04-29T03:38:01.035Z,18.39
2023-04-29T03:40:29.515Z,18.24
2023-04-29T03:42:58.166Z,17.13
2023-04-29T03:45:26.680Z,17.44
2023-04-29T03:47:55.322Z,16.51
2023-04-29T03:50:24.048Z,16.77
2023-04-29T03:52:52.853Z,17.14
2023-04-29T03:55:21.335Z,17.15
2023-04-29T03:57:49.696Z,18.03
2023-04-29T04:00:19.257Z,19.08
2023-04-29T04:02:48.055Z,18.23
2023-04-29T04:05:19.395Z,17.83
2023-04-29T04:07:47.932Z,16.62
2023-04-29T04:10:16.501Z,17.64
2023-04-29T04:12:45.641Z,17.91
2023-04-29T04:15:15.060Z,18.20
2023-04-29T04:17:43.631Z,18.30
2023-04-29T04:20:13.284Z,17.93
2023-04-29T04:22:41.684Z,17.19
2023-04-29T04:25:10.447Z,17.99
2023-04-29T04:27:38.847Z,18.20
2023-04-29T04:30:07.871Z,18.08
2023-04-29T04:32:36.363Z,18.19
2023-04-29T04:35:06.521Z,18.90
2023-04-29T04:37:34.937Z,18.82
2023-04-29T04:40:04.213Z,19.07
2023-04-29T04:42:32.567Z,18.32
2023-04-29T04:45:01.057Z,18.96
2023-04-29T04:47:29.503Z,18.49
2023-04-29T04:49:58.015Z,18.78
2023-04-29T04:52:26.488Z,18.17
2023-04-29T04:54:55.245Z,18.10
2023-04-29T04:57:23.771Z,17.52
2023-04-29T04:59:52.492Z,17.67
2023-04-29T05:02:21.285Z,18.45
2023-04-29T05:04:49.798Z,17.58
2023-04-29T05:07:18.197Z,18.17
2023-04-29T05:09:46.583Z,18.27
2023-04-29T05:12:15.077Z,18.34
2023-04-29T05:14:43.573Z,18.61
2023-04-29T05:17:11.925Z,18.64
2023-04-29T05:19:40.414Z,18.46
2023-04-29T05:22:08.894Z,18.51
2023-04-29T05:24:37.305Z,17.88
2023-04-29T05:27:05.885Z,18.01
2023-04-29T05:29:34.322Z,17.47
2023-04-29T05:32:02.830Z,17.46
2023-04-29T05:34:31.241Z,17.67
2023-04-29T05:36:59.622Z,17.75
2023-04-29T05:39:28.074Z,18.34
2023-04-29T05:41:56.884Z,18.34
2023-04-29T05:44:25.456Z,18.44
2023-04-29T05:46:53.926Z,18.25
2023-04-29T05:49:22.301Z,18.42
2023-04-29T05:51:50.638Z,17.86
2023-04-29T05:54:19.064Z,18.09
2023-04-29T05:56:47.479Z,18.37
2023-04-29T05:59:16.238Z,19.27
2023-04-29T06:01:44.786Z,19.31
2023-04-29T06:04:13.378Z,18.41
2023-04-29T06:06:42.485Z,17.28
2023-04-29T06:09:23.780Z,18.40
2023-04-29T06:11:56.407Z,18.04
2023-04-29T06:14:25.040Z,18.47
2023-04-29T06:16:55.145Z,18.31
2023-04-29T06:19:25.045Z,19.14
2023-04-29T06:21:53.677Z,19.24
2023-04-29T06:24:22.199Z,18.21
2023-04-29T06:26:50.723Z,17.85
2023-04-29T06:29:19.147Z,18.92
2023-04-29T06:31:47.689Z,18.95
2023-04-29T06:34:16.224Z,17.31
2023-04-29T06:36:46.101Z,18.11
2023-04-29T06:39:15.000Z,18.89
2023-04-29T06:41:43.552Z,19.20
2023-04-29T06:44:12.460Z,18.70
2023-04-29T06:46:40.952Z,18.86
2023-04-29T06:49:10.093Z,18.54
2023-04-29T06:51:38.619Z,19.16
2023-04-29T06:54:07.119Z,19.59
2023-04-29T06:56:35.744Z,18.65
2023-04-29T06:59:04.548Z,19.27
2023-04-29T07:01:33.082Z,18.64
2023-04-29T07:04:02.286Z,18.74
2023-04-29T07:06:30.840Z,18.81
2023-04-29T07:09:00.387Z,18.77
2023-04-29T07:11:28.823Z,18.83
2023-04-29T07:13:57.283Z,18.69
2023-04-29T07:16:27.192Z,18.78
2023-04-29T07:18:55.618Z,19.31
2023-04-29T07:21:24.076Z,18.94
2023-04-29T07:23:52.637Z,19.59
2023-04-29T07:26:21.682Z,19.68
2023-04-29T07:28:50.312Z,19.09
2023-04-29T07:31:18.967Z,18.71
2023-04-29T07:33:47.684Z,18.12
2023-04-29T07:36:16.430Z,18.41
2023-04-29T07:38:45.364Z,19.71
2023-04-29T07:41:13.934Z,19.00
2023-04-29T07:43:42.687Z,19.31
2023-04-29T07:46:11.837Z,18.70
2023-04-29T07:48:40.409Z,19.47
2023-04-29T07:51:14.314Z,19.01
2023-04-29T07:53:43.569Z,18.58
2023-04-29T07:56:12.153Z,19.42
2023-04-29T07:58:40.739Z,18.65
2023-04-29T08:01:10.409Z,18.60
2023-04-29T08:03:41.405Z,19.74
2023-04-29T08:06:10.583Z,20.39
2023-04-29T08:08:39.291Z,19.49
2023-04-29T08:11:07.767Z,18.94
2023-04-29T08:13:36.351Z,18.88
2023-04-29T08:16:04.903Z,18.51
2023-04-29T08:18:33.488Z,18.39
2023-04-29T08:21:02.200Z,18.99
2023-04-29T08:23:31.171Z,17.77
2023-04-29T08:25:59.610Z,18.56
2023-04-29T08:28:28.160Z,19.26
2023-04-29T08:30:56.671Z,18.54
2023-04-29T08:33:25.091Z,17.71
2023-04-29T08:36:00.716Z,19.99
2023-04-29T08:38:30.381Z,19.41
2023-04-29T08:40:58.821Z,20.51
2023-04-29T08:43:27.571Z,18.66
2023-04-29T08:45:58.359Z,19.71
2023-04-29T08:48:28.966Z,20.01
2023-04-29T08:50:58.875Z,20.63
2023-04-29T08:53:27.820Z,21.24
2023-04-29T08:55:58.694Z,19.32
2023-04-29T08:58:29.776Z,20.28
2023-04-29T09:00:58.424Z,20.52
2023-04-29T09:03:43.126Z,19.20
2023-04-29T09:06:13.617Z,18.54
2023-04-29T09:08:42.529Z,19.07
2023-04-29T09:11:12.691Z,19.37
2023-04-29T09:13:41.166Z,20.02
2023-04-29T09:16:13.360Z,20.48
2023-04-29T09:18:52.089Z,19.26
2023-04-29T09:21:25.268Z,19.90
2023-04-29T09:24:02.011Z,20.54
2023-04-29T09:26:42.730Z,20.16
2023-04-29T09:29:14.167Z,19.12
2023-04-29T09:31:42.883Z,18.39
2023-04-29T09:34:12.465Z,20.88
2023-04-29T09:36:48.549Z,21.05
2023-04-29T09:39:22.192Z,20.02
2023-04-29T09:41:50.682Z,18.42
2023-04-29T09:44:33.649Z,19.42
2023-04-29T09:47:06.466Z,19.80
2023-04-29T09:49:37.345Z,20.36
2023-04-29T09:52:11.690Z,19.73
2023-04-29T09:54:42.364Z,19.81
2023-04-29T09:57:12.206Z,20.09
2023-04-29T09:59:42.462Z,20.20
2023-04-29T10:02:17.707Z,22.42
2023-04-29T10:04:48.305Z,21.74
2023-04-29T10:07:18.005Z,22.39
2023-04-29T10:09:48.613Z,22.58
2023-04-29T10:12:21.277Z,22.29
2023-04-29T10:15:12.286Z,22.00
2023-04-29T10:17:55.087Z,20.28
2023-04-29T10:20:25.678Z,20.77
2023-04-29T10:22:56.490Z,21.16
2023-04-29T10:25:28.202Z,20.59
2023-04-29T10:27:58.328Z,22.24
2023-04-29T10:30:27.587Z,21.38
2023-04-29T10:32:57.546Z,21.57
2023-04-29T10:35:26.867Z,22.95
2023-04-29T10:37:59.857Z,21.58
2023-04-29T10:40:36.940Z,20.13
2023-04-29T10:43:05.825Z,20.64
2023-04-29T10:45:37.591Z,20.13
2023-04-29T10:48:10.289Z,21.06
2023-04-29T10:50:48.333Z,21.09
2023-04-29T10:53:22.529Z,22.71
2023-04-29T10:55:56.999Z,23.07
2023-04-29T10:58:40.605Z,22.57
2023-04-29T11:01:12.371Z,23.20
2023-04-29T11:03:55.780Z,21.76
2023-04-29T11:06:38.083Z,21.84
2023-04-29T11:09:16.027Z,21.07
2023-04-29T11:11:45.626Z,22.20
2023-04-29T11:14:15.387Z,20.70
2023-04-29T11:16:49.421Z,21.74
2023-04-29T11:19:18.573Z,20.82
2023-04-29T11:21:47.664Z,21.34
2023-04-29T11:24:17.336Z,22.33
2023-04-29T11:26:46.609Z,23.07
2023-04-29T11:29:15.548Z,21.04
2023-04-29T11:31:44.121Z,21.78
2023-04-29T11:34:12.663Z,21.48
2023-04-29T11:36:42.354Z,21.22
2023-04-29T11:39:10.897Z,22.23
2023-04-29T11:41:39.473Z,23.56
2023-04-29T11:44:10.564Z,21.59
2023-04-29T11:46:39.225Z,22.77
2023-04-29T11:49:07.854Z,21.26
2023-04-29T11:51:36.510Z,22.54
2023-04-29T11:54:06.351Z,22.53
2023-04-29T11:56:38.190Z,21.89
2023-04-29T11:59:08.131Z,22.66
2023-04-29T12:01:36.976Z,22.69
2023-04-29T12:04:06.201Z,23.26
2023-04-29T12:06:35.154Z,23.39
2023-04-29T12:09:04.630Z,22.02
2023-04-29T12:11:33.167Z,22.53
2023-04-29T12:14:06.360Z,23.92
2023-04-29T12:16:35.652Z,23.22
2023-04-29T12:19:04.875Z,22.87
2023-04-29T12:21:36.618Z,23.16
2023-04-29T12:24:05.456Z,23.25
2023-04-29T12:26:34.169Z,23.82
2023-04-29T12:29:02.674Z,23.08
2023-04-29T12:31:34.785Z,22.74
2023-04-29T12:34:06.848Z,23.86
2023-04-29T12:36:37.781Z,23.56
2023-04-29T12:39:09.905Z,23.88
2023-04-29T12:41:38.828Z,24.33
2023-04-29T12:44:08.302Z,24.80
2023-04-29T12:46:38.260Z,23.54
2023-04-29T12:49:07.726Z,24.32
2023-04-29T12:51:36.796Z,23.25
2023-04-29T12:54:07.236Z,24.29
2023-04-29T12:56:35.766Z,23.05
2023-04-29T12:59:10.122Z,24.04
2023-04-29T13:01:39.754Z,22.59
2023-04-29T13:04:09.407Z,23.32
2023-04-29T13:06:41.769Z,23.09
2023-04-29T13:09:17.014Z,22.58
2023-04-29T13:11:47.216Z,24.32
2023-04-29T13:14:16.443Z,21.40
2023-04-29T13:16:46.012Z,23.79
2023-04-29T13:19:30.439Z,24.38
2023-04-29T13:22:03.247Z,23.12
2023-04-29T13:24:33.067Z,23.65
2023-04-29T13:27:03.004Z,24.07
2023-04-29T13:29:31.610Z,22.49
2023-04-29T13:32:00.264Z,23.62
2023-04-29T13:34:28.715Z,24.58
2023-04-29T13:36:57.230Z,24.64
2023-04-29T13:39:27.080Z,22.92
2023-04-29T13:41:59.012Z,24.02
2023-04-29T13:44:36.020Z,24.20
2023-04-29T13:47:08.369Z,22.79
2023-04-29T13:50:10.020Z,24.02
2023-04-29T13:53:10.495Z,24.77
2023-04-29T14:05:27.067Z,22.99
2023-04-29T14:07:56.054Z,23.64
2023-04-29T14:10:24.547Z,23.51
2023-04-29T14:12:53.038Z,24.33
2023-04-29T14:15:21.657Z,23.03
2023-04-29T14:17:50.536Z,24.33
2023-04-29T14:20:19.141Z,24.32
2023-04-29T14:22:47.703Z,25.19
2023-04-29T14:25:16.524Z,23.94
2023-04-29T14:27:45.010Z,24.74
2023-04-29T14:30:13.815Z,23.57
2023-04-29T14:32:42.390Z,23.93
2023-04-29T14:35:11.196Z,24.11
2023-04-29T14:37:40.033Z,24.06
2023-04-29T14:40:09.436Z,23.87
2023-04-29T14:42:38.566Z,24.35
2023-04-29T14:45:07.932Z,24.83
2023-04-29T14:47:36.602Z,24.87
2023-04-29T14:50:05.597Z,24.72
2023-04-29T14:52:34.044Z,25.51
2023-04-29T14:55:03.351Z,25.22
2023-04-29T14:57:31.935Z,25.00
2023-04-29T15:00:01.213Z,24.23
2023-04-29T15:02:29.694Z,24.34
2023-04-29T15:05:00.284Z,25.47
2023-04-29T15:07:31.147Z,25.25
2023-04-29T15:10:00.292Z,23.90
2023-04-29T15:12:28.877Z,24.99
2023-04-29T15:14:57.388Z,25.95
2023-04-29T15:17:25.939Z,23.93
2023-04-29T15:19:54.607Z,25.38
2023-04-29T15:22:23.061Z,25.65
2023-04-29T15:24:52.661Z,23.56
2023-04-29T15:27:21.762Z,23.72
2023-04-29T15:29:53.302Z,22.89
2023-04-29T15:32:22.399Z,25.04
2023-04-29T15:34:50.928Z,25.69
2023-04-29T15:37:19.431Z,25.09
2023-04-29T15:39:47.828Z,24.85
2023-04-29T15:42:16.563Z,24.62
2023-04-29T15:44:45.144Z,24.64
2023-04-29T15:47:13.643Z,24.92
2023-04-29T15:49:42.729Z,22.85
2023-04-29T15:52:11.267Z,25.18
2023-04-29T15:54:40.034Z,24.65
2023-04-29T15:57:08.591Z,24.71
2023-04-29T15:59:37.151Z,22.94
2023-04-29T16:02:10.667Z,24.50
2023-04-29T16:04:39.367Z,24.88
2023-04-29T16:07:07.957Z,23.78
2023-04-29T16:09:36.536Z,25.24
2023-04-29T16:12:05.318Z,25.63
2023-04-29T16:14:33.845Z,25.69
2023-04-29T16:17:02.599Z,25.61
2023-04-29T16:19:31.246Z,23.65
2023-04-29T16:21:59.674Z,24.83
2023-04-29T16:24:28.194Z,25.02
2023-04-29T16:26:56.948Z,25.65
2023-04-29T16:29:25.894Z,26.18
2023-04-29T16:31:54.488Z,26.41
2023-04-29T16:34:23.634Z,25.71
2023-04-29T16:36:52.323Z,26.09
2023-04-29T16:39:20.749Z,23.78
2023-04-29T16:41:49.236Z,25.38
2023-04-29T16:44:17.803Z,24.97
2023-04-29T16:46:46.682Z,25.02
2023-04-29T16:49:23.234Z,25.02
2023-04-29T16:51:52.275Z,25.95
2023-04-29T16:54:21.876Z,25.67
2023-04-29T16:56:51.355Z,24.98
2023-04-29T16:59:19.928Z,25.09
2023-04-29T17:01:48.824Z,25.26
2023-04-29T17:04:17.433Z,25.42
2023-04-29T17:06:45.961Z,25.29
2023-04-29T17:09:15.793Z,25.74
2023-04-29T17:11:44.172Z,25.44
2023-04-29T17:14:12.604Z,23.98
2023-04-29T17:16:41.400Z,23.93
2023-04-29T17:19:10.176Z,23.55
2023-04-29T17:21:38.719Z,23.80
2023-04-29T17:24:07.177Z,24.47
2023-04-29T17:26:35.654Z,25.27
2023-04-29T17:29:04.380Z,24.89
2023-04-29T17:31:44.931Z,24.02
2023-04-29T17:34:25.744Z,24.02
2023-04-29T17:36:54.192Z,24.93
2023-04-29T17:39:23.389Z,24.94
2023-04-29T17:41:51.941Z,24.81
2023-04-29T17:44:23.150Z,24.86
2023-04-29T17:46:52.029Z,25.37
2023-04-29T17:49:20.587Z,24.62
2023-04-29T17:51:49.138Z,24.68
2023-04-29T17:54:17.559Z,24.78
2023-04-29T17:56:46.217Z,25.48
2023-04-29T17:59:15.170Z,25.28
2023-04-29T18:01:43.867Z,24.82
2023-04-29T18:04:12.923Z,25.14
2023-04-29T18:06:41.675Z,25.33
2023-04-29T18:09:10.405Z,25.56
2023-04-29T18:11:39.013Z,25.92
2023-04-29T18:14:07.797Z,25.41
2023-04-29T18:16:36.414Z,25.31
2023-04-29T18:19:04.849Z,25.22
2023-04-29T18:21:33.406Z,25.79
2023-04-29T18:24:02.038Z,26.01
2023-04-29T18:26:31.626Z,26.20
2023-04-29T18:29:00.194Z,26.16
2023-04-29T18:31:28.623Z,25.65
2023-04-29T18:33:57.069Z,25.21
2023-04-29T18:36:25.660Z,24.94
2023-04-29T18:38:54.098Z,25.07
2023-04-29T18:41:22.569Z,24.62
2023-04-29T18:43:51.059Z,24.28
2023-04-29T18:46:19.550Z,24.46
2023-04-29T18:48:48.689Z,24.95
2023-04-29T18:51:17.128Z,24.69
2023-04-29T18:53:45.706Z,24.29
2023-04-29T18:56:14.219Z,23.71
2023-04-29T18:58:42.735Z,24.04
2023-04-29T19:01:11.712Z,23.11
2023-04-29T19:03:40.290Z,22.40
2023-04-29T19:06:08.781Z,22.37
2023-04-29T19:08:37.279Z,23.05
2023-04-29T19:11:05.808Z,23.29
2023-04-29T19:13:34.272Z,22.78
2023-04-29T19:16:02.833Z,23.01
2023-04-29T19:18:31.297Z,23.27
2023-04-29T19:21:00.288Z,23.75
2023-04-29T19:23:28.842Z,24.44
2023-04-29T19:25:57.305Z,24.78
2023-04-29T19:28:25.718Z,24.19
2023-04-29T19:30:54.250Z,24.49
2023-04-29T19:33:22.785Z,23.92
2023-04-29T19:35:51.279Z,23.43
2023-04-29T19:38:19.871Z,21.94
2023-04-29T19:40:48.880Z,21.77
2023-04-29T19:43:17.967Z,22.87
2023-04-29T19:45:46.411Z,21.65
2023-04-29T19:48:15.486Z,21.58
2023-04-29T19:50:44.014Z,22.02
2023-04-29T19:53:13.712Z,21.59
2023-04-29T19:55:42.351Z,21.98
2023-04-29T19:58:10.845Z,21.46
2023-04-29T20:00:39.548Z,19.71
2023-04-29T20:03:08.195Z,21.61
2023-04-29T20:05:36.747Z,22.11
2023-04-29T20:08:05.874Z,21.37
2023-04-29T20:10:34.296Z,21.83
2023-04-29T20:13:02.972Z,21.96
2023-04-29T20:15:31.443Z,22.39
2023-04-29T20:18:00.194Z,21.87
2023-04-29T20:20:28.637Z,22.20
2023-04-29T20:23:00.261Z,22.05
2023-04-29T20:25:28.836Z,21.96
2023-04-29T20:27:57.600Z,21.71
2023-04-29T20:30:26.575Z,22.07
2023-04-29T20:32:55.173Z,21.86
2023-04-29T20:35:24.463Z,21.60
2023-04-29T20:37:53.372Z,22.29
2023-04-29T20:40:21.953Z,22.19
2023-04-29T20:42:50.429Z,21.57
2023-04-29T20:45:18.856Z,21.25
2023-04-29T20:47:47.464Z,21.10
2023-04-29T20:50:16.193Z,21.70
2023-04-29T20:52:45.465Z,21.33
2023-04-29T20:55:15.902Z,21.24
2023-04-29T20:57:44.375Z,20.92
2023-04-29T21:00:14.273Z,20.97
2023-04-29T21:02:42.763Z,20.62
2023-04-29T21:05:11.787Z,21.02
2023-04-29T21:07:40.211Z,20.55
2023-04-29T21:10:09.004Z,21.05
2023-04-29T21:12:37.454Z,20.64
2023-04-29T21:15:06.806Z,21.05
2023-04-29T21:17:35.259Z,21.41
2023-04-29T21:20:04.640Z,21.66
2023-04-29T21:22:33.105Z,20.90
2023-04-29T21:25:02.610Z,21.41
2023-04-29T21:27:31.299Z,20.45
2023-04-29T21:29:59.790Z,20.06
2023-04-29T21:32:28.317Z,19.60
2023-04-29T21:34:56.734Z,20.66
2023-04-29T21:37:25.204Z,20.13
2023-04-29T21:39:57.394Z,19.25
2023-04-29T21:42:26.293Z,20.73
2023-04-29T21:44:57.337Z,20.32
2023-04-29T21:47:28.077Z,20.01
2023-04-29T21:49:57.171Z,20.16
2023-04-29T21:52:25.767Z,20.38
2023-04-29T21:54:54.303Z,19.91
2023-04-29T21:57:35.636Z,20.41
2023-04-29T22:00:28.146Z,20.46
2023-04-29T22:02:56.919Z,19.94
2023-04-29T22:05:25.431Z,19.97
2023-04-29T22:07:54.117Z,20.24
2023-04-29T22:10:22.579Z,20.01
2023-04-29T22:12:51.701Z,19.74
2023-04-29T22:15:28.031Z,20.31
2023-04-29T22:17:57.862Z,20.12
2023-04-29T22:20:26.788Z,19.93
2023-04-29T22:22:55.432Z,19.95
2023-04-29T22:25:23.887Z,19.76
2023-04-29T22:27:52.384Z,19.86
2023-04-29T22:30:20.919Z,20.02
2023-04-29T22:32:49.392Z,18.58
2023-04-29T22:35:17.971Z,19.87
2023-04-29T22:37:46.445Z,20.25
2023-04-29T22:40:15.080Z,19.87
2023-04-29T22:42:43.676Z,19.30
2023-04-29T22:45:12.534Z,19.77
2023-04-29T22:47:41.208Z,19.34
2023-04-29T22:50:10.238Z,20.10
2023-04-29T22:52:39.138Z,20.05
2023-04-29T22:55:08.403Z,19.13
2023-04-29T22:57:36.857Z,19.83
2023-04-29T23:00:06.416Z,19.48
2023-04-29T23:02:35.851Z,19.67
2023-04-29T23:05:04.938Z,19.85
2023-04-29T23:07:34.493Z,19.34
2023-04-29T23:10:02.974Z,19.39
2023-04-29T23:12:31.915Z,19.23
2023-04-29T23:15:00.322Z,18.21
2023-04-29T23:17:28.773Z,19.03
2023-04-29T23:19:57.561Z,18.98
2023-04-29T23:22:26.219Z,19.41
2023-04-29T23:24:54.683Z,19.73
2023-04-29T23:27:24.145Z,19.47
2023-04-29T23:29:52.716Z,19.67
2023-04-29T23:32:21.410Z,19.44
2023-04-29T23:34:49.817Z,17.88
2023-04-29T23:37:18.283Z,18.97
2023-04-29T23:39:46.773Z,19.35
2023-04-29T23:42:15.386Z,18.40
2023-04-29T23:44:43.958Z,18.31
2023-04-29T23:47:12.401Z,18.57
2023-04-29T23:49:40.950Z,17.86
2023-04-29T23:52:10.359Z,18.40
2023-04-29T23:54:38.818Z,18.09
2023-04-29T23:57:07.266Z,18.44
2023-04-29T23:59:35.695Z,17.99
